Time;durP1;ratioP1;P1;durP2;ratioP2;P2;SDS_P1;SDS_P2;PMS_P1;PMS_P2;Temp;Humidity;BMP_temperature;BMP_pressure;BME280_temperature;BME280_humidity;BME280_pressure;Samples;Min_cycle;Max_cycle;Signal;HPM_P1;HPM_P2
2023/08/26 00:00:28;;;;;;;22.17;21.00;;;19.10;99.90;;;;;;5011800;28;20030;-80
2023/08/26 00:02:55;;;;;;;48.95;46.45;;;19.10;99.90;;;;;;5012469;28;20080;-80
2023/08/26 00:05:21;;;;;;;26.98;25.27;;;19.10;99.90;;;;;;5012250;28;20022;-80
2023/08/26 00:07:47;;;;;;;19.00;17.88;;;19.00;99.90;;;;;;5016134;28;20386;-81
2023/08/26 00:10:13;;;;;;;30.48;28.63;;;19.00;99.90;;;;;;5016010;28;20037;-80
2023/08/26 00:12:39;;;;;;;22.77;21.60;;;18.90;99.90;;;;;;5016419;28;20034;-80
2023/08/26 00:15:06;;;;;;;26.23;24.65;;;18.80;99.90;;;;;;5016095;28;20026;-80
2023/08/26 00:17:32;;;;;;;38.00;36.00;;;18.90;99.90;;;;;;5016192;28;20038;-80
2023/08/26 00:19:58;;;;;;;34.20;32.05;;;18.90;99.90;;;;;;5016428;28;20037;-82
2023/08/26 00:22:25;;;;;;;49.97;47.38;;;18.80;99.90;;;;;;5015689;28;20487;-80
2023/08/26 00:24:51;;;;;;;31.27;29.58;;;18.80;99.90;;;;;;5015971;28;20040;-80
2023/08/26 00:27:17;;;;;;;22.95;21.50;;;18.80;99.90;;;;;;5014849;28;20045;-80
2023/08/26 00:29:43;;;;;;;26.52;25.10;;;18.80;99.90;;;;;;5016125;28;20026;-80
2023/08/26 00:32:09;;;;;;;22.02;20.50;;;18.80;99.90;;;;;;5013987;28;20045;-80
2023/08/26 00:34:35;;;;;;;21.77;20.58;;;18.80;99.90;;;;;;5016095;28;20033;-80
2023/08/26 00:37:01;;;;;;;24.17;22.77;;;18.80;99.90;;;;;;5015656;28;20037;-80
2023/08/26 00:39:27;;;;;;;23.17;21.77;;;18.70;99.90;;;;;;5014549;28;20034;-80
2023/08/26 00:41:53;;;;;;;23.00;21.75;;;18.70;99.90;;;;;;5015499;28;20048;-80
2023/08/26 00:44:19;;;;;;;22.35;21.13;;;18.70;99.90;;;;;;5015815;28;20029;-80
2023/08/26 00:46:45;;;;;;;25.95;24.50;;;18.70;99.90;;;;;;5015170;28;20034;-80
2023/08/26 00:49:12;;;;;;;23.08;21.83;;;18.70;99.90;;;;;;5015889;28;20040;-81
2023/08/26 00:51:38;;;;;;;31.27;29.67;;;18.70;99.90;;;;;;5015069;28;20092;-81
2023/08/26 00:54:04;;;;;;;29.02;27.50;;;18.70;99.90;;;;;;5015395;28;20030;-81
2023/08/26 00:56:31;;;;;;;26.10;24.42;;;18.60;99.90;;;;;;5015409;28;20045;-80
2023/08/26 00:58:57;;;;;;;26.40;24.90;;;18.60;99.90;;;;;;4997619;28;20498;-80
2023/08/26 01:01:23;;;;;;;26.08;24.58;;;18.50;99.90;;;;;;5014919;28;20049;-80
2023/08/26 01:03:49;;;;;;;28.30;26.70;;;18.50;99.90;;;;;;4997969;28;20049;-81
2023/08/26 01:06:16;;;;;;;38.25;36.08;;;18.50;99.90;;;;;;5013995;28;20034;-80
2023/08/26 01:08:42;;;;;;;45.75;43.50;;;18.50;99.90;;;;;;5015407;28;20046;-80
2023/08/26 01:11:17;;;;;;;44.22;41.88;;;18.40;99.90;;;;;;5015337;28;20046;-81
2023/08/26 01:14:02;;;;;;;39.53;37.42;;;18.40;99.90;;;;;;5015491;28;20033;-81
2023/08/26 01:16:28;;;;;;;32.20;30.45;;;18.40;99.90;;;;;;5012964;28;20037;-80
2023/08/26 01:18:54;;;;;;;24.55;23.33;;;18.20;99.90;;;;;;5013517;28;20029;-80
2023/08/26 01:21:21;;;;;;;35.22;33.35;;;18.20;99.90;;;;;;5013522;28;20037;-80
2023/08/26 01:23:47;;;;;;;61.53;58.45;;;18.20;99.90;;;;;;5014047;28;20049;-80
2023/08/26 01:26:15;;;;;;;57.63;54.72;;;18.10;99.90;;;;;;5013761;28;20522;-79
2023/08/26 01:28:41;;;;;;;43.30;41.10;;;18.10;99.90;;;;;;5014878;28;20057;-80
2023/08/26 01:31:09;;;;;;;90.25;85.90;;;18.00;99.90;;;;;;5014144;28;20052;-80
2023/08/26 01:33:42;;;;;;;47.72;45.35;;;18.10;99.90;;;;;;5015364;28;20042;-80
2023/08/26 01:36:10;;;;;;;48.50;45.95;;;18.10;99.90;;;;;;5013113;28;20033;-80
2023/08/26 01:38:36;;;;;;;48.05;45.42;;;18.10;99.90;;;;;;5014826;28;20021;-80
2023/08/26 01:41:02;;;;;;;33.42;31.52;;;18.10;99.90;;;;;;5013225;28;20045;-80
2023/08/26 01:43:28;;;;;;;37.72;35.75;;;18.20;99.90;;;;;;5013423;28;20065;-80
2023/08/26 01:45:55;;;;;;;31.05;29.33;;;18.20;99.90;;;;;;5012694;28;20049;-81
2023/08/26 01:48:21;;;;;;;34.63;32.53;;;18.20;99.90;;;;;;5014657;28;20030;-80
2023/08/26 01:50:47;;;;;;;29.52;27.75;;;18.20;99.90;;;;;;5014031;28;20030;-81
2023/08/26 01:53:13;;;;;;;45.72;43.28;;;18.20;99.90;;;;;;5014412;28;20052;-81
2023/08/26 01:55:39;;;;;;;112.55;106.93;;;18.20;99.90;;;;;;5014741;28;20034;-80
2023/08/26 01:58:05;;;;;;;59.80;56.45;;;18.20;99.90;;;;;;5013142;28;20037;-80
2023/08/26 02:00:31;;;;;;;63.03;59.85;;;18.10;99.90;;;;;;5009137;28;20046;-80
2023/08/26 02:02:57;;;;;;;72.65;69.13;;;18.10;99.90;;;;;;5008467;28;20033;-80
2023/08/26 02:05:23;;;;;;;44.92;42.60;;;18.00;99.90;;;;;;5012945;28;20042;-80
2023/08/26 02:07:50;;;;;;;43.58;41.13;;;18.00;99.90;;;;;;5012890;28;20037;-81
2023/08/26 02:10:16;;;;;;;40.67;38.40;;;18.00;99.90;;;;;;5012674;28;20045;-81
2023/08/26 02:12:42;;;;;;;62.03;58.90;;;18.00;99.90;;;;;;5012909;28;20030;-80
2023/08/26 02:15:08;;;;;;;43.25;40.95;;;17.90;99.90;;;;;;5012428;28;20482;-79
2023/08/26 02:17:34;;;;;;;46.50;44.05;;;18.00;99.90;;;;;;5012860;28;20479;-79
2023/08/26 02:20:00;;;;;;;48.72;46.10;;;18.00;99.90;;;;;;5012342;28;20041;-80
2023/08/26 02:22:26;;;;;;;42.95;40.58;;;18.00;99.90;;;;;;5012353;28;20038;-80
2023/08/26 02:24:52;;;;;;;39.20;37.08;;;18.00;99.90;;;;;;5012825;28;20045;-80
2023/08/26 02:27:19;;;;;;;44.22;41.83;;;18.00;99.90;;;;;;5011230;28;20030;-81
2023/08/26 02:29:45;;;;;;;39.20;37.10;;;18.00;99.90;;;;;;5011507;28;20026;-80
2023/08/26 02:32:13;;;;;;;46.08;43.70;;;18.00;99.90;;;;;;5010551;28;20519;-80
2023/08/26 02:34:39;;;;;;;48.78;46.08;;;18.00;99.90;;;;;;5012370;28;20041;-80
2023/08/26 02:37:05;;;;;;;45.35;42.88;;;18.00;99.90;;;;;;5012676;28;20482;-80
2023/08/26 02:39:31;;;;;;;49.08;46.47;;;18.00;99.90;;;;;;5013628;28;20511;-80
2023/08/26 02:41:57;;;;;;;54.88;52.00;;;18.00;99.90;;;;;;5013481;28;20030;-81
2023/08/26 02:44:23;;;;;;;51.50;48.97;;;17.90;99.90;;;;;;5013554;28;20061;-80
2023/08/26 02:46:49;;;;;;;48.50;45.95;;;17.90;99.90;;;;;;5012732;28;20029;-80
2023/08/26 02:49:15;;;;;;;41.45;39.03;;;17.80;99.90;;;;;;5013241;28;20053;-80
2023/08/26 02:51:41;;;;;;;45.03;42.72;;;17.80;99.90;;;;;;5012912;28;20038;-81
2023/08/26 02:54:07;;;;;;;36.83;34.65;;;17.80;99.90;;;;;;5013458;28;20026;-80
2023/08/26 02:56:33;;;;;;;32.88;30.98;;;17.70;99.90;;;;;;5012528;28;20037;-80
2023/08/26 02:58:59;;;;;;;33.65;31.85;;;17.70;99.90;;;;;;5013364;28;20030;-80
2023/08/26 03:01:30;;;;;;;33.88;31.98;;;17.80;99.90;;;;;;5012642;28;20037;-80
2023/08/26 03:03:57;;;;;;;30.58;28.85;;;17.80;99.90;;;;;;5013044;28;20472;-80
2023/08/26 03:06:23;;;;;;;30.40;28.77;;;17.70;99.90;;;;;;5011704;28;20049;-80
2023/08/26 03:08:49;;;;;;;30.25;28.42;;;17.80;99.90;;;;;;5013547;28;20030;-80
2023/08/26 03:11:15;;;;;;;31.00;29.20;;;17.80;99.90;;;;;;5012718;28;20030;-80
2023/08/26 03:13:41;;;;;;;32.85;30.85;;;17.80;99.90;;;;;;5013041;28;20049;-80
2023/08/26 03:16:09;;;;;;;33.40;31.55;;;17.80;99.90;;;;;;5012288;28;20038;-80
2023/08/26 03:18:35;;;;;;;34.38;32.47;;;17.80;99.90;;;;;;5012704;28;20030;-80
2023/08/26 03:21:08;;;;;;;34.60;32.63;;;17.80;99.90;;;;;;5012694;28;20033;-82
2023/08/26 03:23:37;;;;;;;40.95;38.63;;;17.70;99.90;;;;;;5012912;28;20058;-80
2023/08/26 03:26:06;;;;;;;38.30;36.28;;;17.80;99.90;;;;;;5013255;28;20038;-80
2023/08/26 03:28:32;;;;;;;60.00;56.97;;;17.80;99.90;;;;;;5012957;28;20034;-80
2023/08/26 03:31:04;;;;;;;43.85;41.45;;;17.90;99.90;;;;;;5012140;28;20098;-80
2023/08/26 03:33:30;;;;;;;46.67;44.22;;;17.90;99.90;;;;;;5012646;28;20375;-80
2023/08/26 03:35:56;;;;;;;52.75;49.83;;;17.90;99.90;;;;;;5011391;28;20030;-81
2023/08/26 03:38:23;;;;;;;51.22;48.63;;;17.90;99.90;;;;;;5012673;28;20037;-80
2023/08/26 03:40:49;;;;;;;47.38;44.65;;;17.90;99.90;;;;;;5012380;28;20026;-81
2023/08/26 03:43:15;;;;;;;84.63;80.53;;;17.90;99.90;;;;;;5012452;28;20045;-80
2023/08/26 03:45:41;;;;;;;101.72;96.82;;;18.00;99.90;;;;;;5012259;28;20415;-80
2023/08/26 03:48:07;;;;;;;125.60;119.18;;;18.00;99.90;;;;;;5012304;28;20030;-80
2023/08/26 03:50:33;;;;;;;118.88;112.80;;;18.00;99.90;;;;;;5012298;28;20026;-80
2023/08/26 03:52:59;;;;;;;134.25;127.45;;;18.10;99.90;;;;;;5010882;28;20513;-80
2023/08/26 03:55:25;;;;;;;112.15;106.50;;;18.10;99.90;;;;;;5012435;28;20125;-80
2023/08/26 03:57:51;;;;;;;137.40;130.63;;;18.10;99.90;;;;;;5012570;28;20737;-80
2023/08/26 04:00:18;;;;;;;118.07;112.32;;;18.10;99.90;;;;;;5011891;28;20033;-80
2023/08/26 04:02:45;;;;;;;128.68;122.35;;;18.20;99.90;;;;;;5012161;28;20034;-80
2023/08/26 04:05:13;;;;;;;118.90;113.07;;;18.20;99.90;;;;;;5012443;28;20038;-81
2023/08/26 04:07:39;;;;;;;123.93;117.85;;;18.20;99.90;;;;;;5012827;28;20032;-80
2023/08/26 04:10:06;;;;;;;125.95;119.72;;;18.20;99.90;;;;;;5012525;28;20026;-81
2023/08/26 04:12:32;;;;;;;124.00;117.97;;;18.20;99.90;;;;;;5012081;28;20486;-80
2023/08/26 04:14:58;;;;;;;143.68;136.77;;;18.20;99.90;;;;;;5012458;28;20034;-79
2023/08/26 04:17:24;;;;;;;138.43;131.52;;;18.20;99.90;;;;;;5011509;28;20057;-79
2023/08/26 04:19:50;;;;;;;138.38;131.50;;;18.20;99.90;;;;;;5012444;28;20033;-79
2023/08/26 04:22:16;;;;;;;120.18;114.40;;;18.20;99.90;;;;;;5011943;28;20060;-79
2023/08/26 04:24:42;;;;;;;108.35;103.03;;;18.20;99.90;;;;;;5012289;28;20052;-79
2023/08/26 04:27:08;;;;;;;101.75;96.53;;;18.20;99.90;;;;;;5012113;28;20026;-80
2023/08/26 04:29:34;;;;;;;70.28;66.57;;;18.20;99.90;;;;;;5012302;28;20030;-79
2023/08/26 04:32:01;;;;;;;64.40;61.17;;;18.20;99.90;;;;;;5011059;28;20034;-80
2023/08/26 04:34:27;;;;;;;62.70;59.40;;;18.20;99.90;;;;;;5012183;28;20026;-79
2023/08/26 04:36:53;;;;;;;67.50;64.03;;;18.20;99.90;;;;;;5012033;28;20033;-80
2023/08/26 04:39:22;;;;;;;76.50;72.55;;;18.20;99.90;;;;;;5012208;28;20030;-80
2023/08/26 04:41:48;;;;;;;70.25;66.82;;;18.20;99.90;;;;;;5011846;28;20030;-80
2023/08/26 04:44:17;;;;;;;90.95;86.22;;;18.10;99.90;;;;;;5011717;28;20042;-79
2023/08/26 04:46:43;;;;;;;109.78;104.22;;;18.10;99.90;;;;;;5011159;28;20045;-80
2023/08/26 04:49:09;;;;;;;114.82;109.20;;;17.90;99.90;;;;;;5012135;28;20026;-80
2023/08/26 04:51:37;;;;;;;103.45;98.25;;;17.90;99.90;;;;;;5011419;28;20042;-79
2023/08/26 04:54:04;;;;;;;89.93;85.43;;;17.80;99.90;;;;;;5012884;28;20034;-80
2023/08/26 04:56:30;;;;;;;109.65;104.15;;;17.80;99.90;;;;;;5015656;28;20026;-80
2023/08/26 04:58:56;;;;;;;102.57;97.43;;;17.70;99.90;;;;;;5014092;28;20460;-80
2023/08/26 05:01:22;;;;;;;105.35;100.15;;;17.70;99.90;;;;;;5015110;28;20042;-80
2023/08/26 05:03:48;;;;;;;113.65;107.95;;;17.70;99.90;;;;;;5015384;28;20399;-80
2023/08/26 05:06:14;;;;;;;102.03;97.00;;;17.70;99.90;;;;;;5015715;28;20030;-79
2023/08/26 05:08:40;;;;;;;91.38;86.47;;;17.80;99.90;;;;;;5015703;28;20391;-79
2023/08/26 05:11:07;;;;;;;119.10;113.20;;;17.70;99.90;;;;;;5015434;28;20037;-80
2023/08/26 05:13:33;;;;;;;100.70;95.88;;;17.70;99.90;;;;;;5015097;28;20032;-79
2023/08/26 05:15:59;;;;;;;110.47;105.07;;;17.80;99.90;;;;;;5014861;28;20392;-79
2023/08/26 05:18:25;;;;;;;102.68;97.82;;;17.70;99.90;;;;;;5015331;28;20030;-79
2023/08/26 05:20:51;;;;;;;69.50;66.10;;;17.70;99.90;;;;;;5015223;28;20030;-80
2023/08/26 05:23:17;;;;;;;58.38;55.47;;;17.70;99.90;;;;;;5014010;28;20526;-80
2023/08/26 05:25:43;;;;;;;58.63;55.50;;;17.70;99.90;;;;;;5015136;28;20033;-79
2023/08/26 05:28:10;;;;;;;59.65;56.60;;;17.70;99.90;;;;;;5014967;28;20034;-80
2023/08/26 05:30:36;;;;;;;59.55;56.42;;;17.80;99.90;;;;;;5014681;28;20395;-79
2023/08/26 05:33:02;;;;;;;69.22;65.72;;;17.80;99.90;;;;;;5014897;28;20026;-79
2023/08/26 05:35:28;;;;;;;68.43;64.90;;;17.70;99.90;;;;;;5015195;28;20033;-79
2023/08/26 05:37:54;;;;;;;75.43;71.63;;;17.70;99.90;;;;;;5014795;28;20030;-79
2023/08/26 05:40:26;;;;;;;78.07;74.22;;;17.70;99.90;;;;;;5014936;28;20045;-80
2023/08/26 05:42:55;;;;;;;62.17;58.97;;;17.70;99.90;;;;;;5014332;28;20045;-78
2023/08/26 05:45:22;;;;;;;69.18;65.63;;;17.70;99.90;;;;;;5016012;28;20026;-79
2023/08/26 05:47:48;;;;;;;61.50;58.47;;;17.80;99.90;;;;;;5034573;28;20501;-80
2023/08/26 05:50:14;;;;;;;50.60;47.85;;;17.90;99.90;;;;;;5034407;28;20021;-79
2023/08/26 05:52:40;;;;;;;31.63;29.90;;;18.00;99.90;;;;;;5034461;28;20056;-80
2023/08/26 05:55:07;;;;;;;23.38;22.13;;;18.00;99.90;;;;;;5034306;28;20026;-79
2023/08/26 05:57:33;;;;;;;16.98;15.95;;;18.20;99.90;;;;;;5033958;28;20034;-79
2023/08/26 06:00:00;;;;;;;20.10;18.90;;;18.20;99.90;;;;;;5034423;28;20037;-80
2023/08/26 06:02:26;;;;;;;28.38;26.83;;;18.20;99.90;;;;;;5034058;28;20482;-79
2023/08/26 06:04:52;;;;;;;28.60;26.92;;;18.30;99.90;;;;;;5034240;28;20049;-79
2023/08/26 06:07:18;;;;;;;19.88;18.67;;;18.40;99.90;;;;;;5034374;28;20029;-79
2023/08/26 06:09:44;;;;;;;20.52;19.20;;;18.60;99.90;;;;;;5034583;28;20045;-79
2023/08/26 06:12:11;;;;;;;19.88;18.58;;;18.70;99.90;;;;;;5033760;28;20040;-80
2023/08/26 06:14:37;;;;;;;20.48;19.08;;;18.70;99.90;;;;;;5034056;28;20030;-79
2023/08/26 06:17:04;;;;;;;20.67;19.48;;;18.90;99.90;;;;;;5033675;28;20394;-79
2023/08/26 06:19:30;;;;;;;21.02;19.58;;;19.00;99.90;;;;;;5033824;28;20061;-79
2023/08/26 06:21:56;;;;;;;22.42;21.23;;;19.10;99.90;;;;;;5033710;28;20021;-80
2023/08/26 06:24:22;;;;;;;20.98;19.75;;;19.10;99.90;;;;;;5033898;28;20046;-79
2023/08/26 06:26:48;;;;;;;22.27;21.08;;;19.20;99.90;;;;;;5033605;28;20386;-79
2023/08/26 06:29:15;;;;;;;25.20;23.58;;;19.20;99.90;;;;;;5033734;28;20025;-79
2023/08/26 06:31:42;;;;;;;31.13;29.48;;;19.20;99.90;;;;;;5031643;28;20061;-79
2023/08/26 06:34:08;;;;;;;38.05;35.97;;;19.20;99.90;;;;;;5032459;28;20021;-80
2023/08/26 06:36:34;;;;;;;54.97;52.00;;;19.20;99.90;;;;;;5016300;28;20045;-79
2023/08/26 06:39:01;;;;;;;55.80;53.00;;;19.40;99.90;;;;;;5032419;28;20040;-80
2023/08/26 06:41:28;;;;;;;25.98;24.20;;;19.40;99.90;;;;;;5033091;28;20031;-80
2023/08/26 06:43:54;;;;;;;17.05;16.15;;;19.50;99.90;;;;;;5033436;28;20511;-79
2023/08/26 06:46:20;;;;;;;19.98;18.73;;;19.60;99.90;;;;;;5032890;28;20039;-79
2023/08/26 06:48:46;;;;;;;21.73;20.48;;;19.80;99.90;;;;;;5033397;28;20036;-80
2023/08/26 06:51:12;;;;;;;22.70;21.40;;;20.10;99.90;;;;;;5033072;28;20053;-79
2023/08/26 06:53:38;;;;;;;28.52;26.80;;;20.30;99.90;;;;;;5033039;28;20482;-80
2023/08/26 06:56:05;;;;;;;45.75;43.38;;;20.40;99.90;;;;;;5032905;28;20025;-79
2023/08/26 06:58:31;;;;;;;53.88;50.90;;;20.60;99.90;;;;;;5033174;28;20056;-79
2023/08/26 07:00:57;;;;;;;60.17;57.10;;;20.80;99.90;;;;;;5032693;28;20022;-79
2023/08/26 07:03:24;;;;;;;35.35;33.45;;;20.90;99.90;;;;;;5033002;28;20041;-80
2023/08/26 07:05:50;;;;;;;23.77;22.48;;;21.00;99.90;;;;;;5032893;28;20025;-80
2023/08/26 07:08:17;;;;;;;25.80;24.45;;;21.10;99.90;;;;;;5031952;28;20037;-79
2023/08/26 07:10:47;;;;;;;32.00;30.25;;;21.20;99.90;;;;;;5032717;28;20034;-80
2023/08/26 07:13:13;;;;;;;35.92;33.95;;;21.40;99.90;;;;;;5032921;28;20021;-80
2023/08/26 07:15:39;;;;;;;41.30;39.00;;;21.50;99.90;;;;;;5032375;28;20034;-79
2023/08/26 07:18:06;;;;;;;58.63;55.53;;;21.60;99.90;;;;;;5032801;28;20458;-79
2023/08/26 07:20:32;;;;;;;82.60;78.30;;;21.70;99.90;;;;;;5032943;28;20049;-80
2023/08/26 07:22:58;;;;;;;49.88;47.15;;;21.80;99.90;;;;;;5031756;28;20387;-80
2023/08/26 07:25:24;;;;;;;53.65;50.55;;;21.90;99.90;;;;;;5032385;28;20045;-79
2023/08/26 07:27:50;;;;;;;71.13;66.65;;;22.10;99.90;;;;;;5032609;28;20030;-80
2023/08/26 07:30:16;;;;;;;69.95;66.40;;;22.30;99.90;;;;;;5032213;28;20047;-79
2023/08/26 07:32:43;;;;;;;46.08;43.53;;;22.40;99.90;;;;;;5032304;28;20475;-80
2023/08/26 07:35:09;;;;;;;42.92;40.20;;;22.50;99.90;;;;;;5032641;28;20030;-80
2023/08/26 07:37:36;;;;;;;46.88;43.88;;;22.60;99.90;;;;;;5032479;28;20040;-79
2023/08/26 07:40:05;;;;;;;41.28;39.03;;;22.70;99.90;;;;;;5031864;28;20042;-80
2023/08/26 07:42:36;;;;;;;52.92;50.17;;;22.80;99.90;;;;;;5032376;28;20033;-80
2023/08/26 07:45:02;;;;;;;60.97;57.78;;;22.80;99.90;;;;;;5032345;28;20060;-80
2023/08/26 07:47:28;;;;;;;58.42;55.13;;;23.00;99.90;;;;;;5031696;28;20036;-80
2023/08/26 07:49:55;;;;;;;51.50;48.83;;;23.10;99.90;;;;;;5032668;28;20052;-80
2023/08/26 07:52:21;;;;;;;57.03;53.92;;;23.30;99.90;;;;;;5032269;28;20045;-79
2023/08/26 07:54:47;;;;;;;56.40;53.38;;;23.40;99.90;;;;;;5031500;28;20040;-80
2023/08/26 07:57:13;;;;;;;67.38;63.92;;;23.40;99.90;;;;;;5032410;28;20037;-80
2023/08/26 07:59:39;;;;;;;63.88;60.45;;;23.60;99.90;;;;;;5032370;28;20036;-80
2023/08/26 08:02:05;;;;;;;69.90;66.20;;;23.70;99.90;;;;;;5031752;28;20034;-80
2023/08/26 08:04:31;;;;;;;65.25;61.85;;;23.90;99.90;;;;;;5032201;28;20394;-80
2023/08/26 08:06:57;;;;;;;72.93;69.03;;;24.00;99.90;;;;;;5032202;28;20030;-80
2023/08/26 08:09:23;;;;;;;74.05;69.75;;;24.00;99.90;;;;;;5031830;28;20036;-80
2023/08/26 08:11:49;;;;;;;86.75;82.30;;;24.20;99.90;;;;;;5032202;28;20032;-80
2023/08/26 08:14:15;;;;;;;89.90;85.35;;;24.30;99.90;;;;;;5032959;28;20037;-80
2023/08/26 08:16:42;;;;;;;94.32;89.53;;;24.40;99.90;;;;;;5031849;28;20037;-80
2023/08/26 08:19:08;;;;;;;96.05;91.22;;;24.50;99.90;;;;;;5032483;28;20041;-79
2023/08/26 08:21:34;;;;;;;125.07;118.47;;;24.60;99.90;;;;;;5032231;28;20030;-80
2023/08/26 08:24:00;;;;;;;160.52;152.35;;;24.60;99.90;;;;;;5031769;28;20395;-80
2023/08/26 08:26:28;;;;;;;208.18;197.75;;;24.60;99.90;;;;;;5031958;28;20029;-80
2023/08/26 08:28:54;;;;;;;231.40;219.98;;;24.50;99.90;;;;;;5034910;28;20042;-79
2023/08/26 08:31:20;;;;;;;233.68;221.90;;;24.60;99.90;;;;;;5035929;28;20037;-80
2023/08/26 08:33:46;;;;;;;231.50;219.85;;;24.70;99.90;;;;;;5035900;28;20029;-80
2023/08/26 08:36:13;;;;;;;232.68;221.13;;;24.40;99.90;;;;;;5035697;28;20414;-79
2023/08/26 08:38:39;;;;;;;224.30;212.93;;;24.20;99.90;;;;;;5035900;28;20383;-80
2023/08/26 08:41:05;;;;;;;276.50;262.63;;;24.20;99.90;;;;;;5035658;28;20033;-81
2023/08/26 08:43:31;;;;;;;266.15;252.80;;;24.30;99.90;;;;;;5034571;28;20026;-81
2023/08/26 08:45:57;;;;;;;258.45;245.63;;;24.40;99.90;;;;;;5017581;28;20037;-81
2023/08/26 08:48:23;;;;;;;237.70;225.60;;;24.50;99.90;;;;;;5034159;28;20037;-80
2023/08/26 08:50:50;;;;;;;226.38;215.07;;;24.50;99.90;;;;;;5035083;28;20036;-79
2023/08/26 08:53:17;;;;;;;229.02;217.65;;;24.40;99.90;;;;;;5034236;28;20056;-81
2023/08/26 08:55:43;;;;;;;250.43;238.13;;;24.10;99.90;;;;;;5035647;28;20058;-80
2023/08/26 08:58:10;;;;;;;174.60;165.38;;;24.00;99.90;;;;;;5034338;28;20029;-81
2023/08/26 09:00:36;;;;;;;150.48;142.73;;;24.00;99.90;;;;;;5033180;28;20034;-80
2023/08/26 09:03:03;;;;;;;138.73;131.57;;;23.80;99.90;;;;;;5034116;28;20030;-80
2023/08/26 09:05:30;;;;;;;140.77;133.68;;;23.70;99.90;;;;;;5034965;28;20048;-80
2023/08/26 09:07:56;;;;;;;102.43;97.20;;;23.60;99.90;;;;;;5034080;28;20025;-80
2023/08/26 09:10:22;;;;;;;108.50;102.85;;;23.40;99.90;;;;;;5035270;28;20490;-81
2023/08/26 09:12:48;;;;;;;125.65;119.25;;;23.40;99.90;;;;;;5033935;28;20423;-80
2023/08/26 09:15:14;;;;;;;139.88;132.75;;;23.40;99.90;;;;;;5034707;28;20038;-80
2023/08/26 09:17:45;;;;;;;85.30;80.70;;;23.40;99.90;;;;;;5034992;28;20036;-80
2023/08/26 09:20:11;;;;;;;83.78;79.30;;;23.20;99.90;;;;;;5033650;28;20056;-80
2023/08/26 09:22:37;;;;;;;68.40;64.75;;;23.10;99.90;;;;;;5034895;28;20041;-81
2023/08/26 09:25:04;;;;;;;74.85;70.70;;;23.00;99.90;;;;;;5034880;28;20048;-80
2023/08/26 09:27:34;;;;;;;79.25;74.90;;;23.00;99.90;;;;;;5035049;28;20374;-80
2023/08/26 09:30:00;;;;;;;88.75;84.05;;;23.20;99.90;;;;;;5034888;28;20045;-81
2023/08/26 09:32:36;;;;;;;83.93;79.55;;;23.30;99.90;;;;;;5032911;28;20041;-80
2023/08/26 09:35:12;;;;;;;80.30;75.97;;;23.30;99.90;;;;;;5034463;28;20029;-80
2023/08/26 09:37:42;;;;;;;117.03;110.88;;;23.30;99.90;;;;;;5034698;28;20037;-80
2023/08/26 09:40:15;;;;;;;147.43;139.77;;;23.20;99.90;;;;;;5034199;28;20038;-81
2023/08/26 09:42:42;;;;;;;169.77;161.10;;;23.30;99.90;;;;;;5034374;28;20387;-80
2023/08/26 09:45:10;;;;;;;188.98;179.57;;;23.40;99.90;;;;;;5034103;28;20059;-79
2023/08/26 09:47:36;;;;;;;346.98;329.50;;;23.60;99.90;;;;;;5034525;28;20030;-80
2023/08/26 09:50:03;;;;;;;287.45;273.80;;;23.60;99.90;;;;;;5034575;28;20046;-79
2023/08/26 09:52:29;;;;;;;288.85;274.83;;;23.70;99.90;;;;;;5034292;28;20037;-80
2023/08/26 09:54:56;;;;;;;201.45;191.63;;;23.80;99.90;;;;;;5032410;28;20052;-80
2023/08/26 09:57:22;;;;;;;222.70;211.95;;;23.80;99.90;;;;;;5034513;28;20029;-80
2023/08/26 09:59:49;;;;;;;228.48;217.57;;;23.80;99.90;;;;;;5034388;28;20211;-80
2023/08/26 10:02:23;;;;;;;343.05;326.30;;;23.90;99.90;;;;;;5032628;28;20030;-80
2023/08/26 10:04:56;;;;;;;228.90;217.93;;;23.90;99.90;;;;;;5033779;28;20490;-80
2023/08/26 10:07:23;;;;;;;138.45;131.35;;;23.80;99.90;;;;;;5032877;28;20514;-81
2023/08/26 10:10:12;;;;;;;122.43;116.13;;;23.60;99.90;;;;;;5033006;28;20386;-81
2023/08/26 10:12:41;;;;;;;91.63;86.95;;;23.40;99.90;;;;;;5034108;28;20021;-80
2023/08/26 10:15:12;;;;;;;79.63;75.47;;;23.20;99.90;;;;;;5032777;28;20060;-79
2023/08/26 10:17:39;;;;;;;;;;;23.20;99.90;;;;;;5033440;28;20033;-79
2023/08/26 10:20:06;;;;;;;65.22;61.55;;;23.10;99.90;;;;;;5032378;28;19912;-80
2023/08/26 10:22:33;;;;;;;72.60;68.70;;;23.00;99.90;;;;;;5032738;28;20033;-80
2023/08/26 10:24:59;;;;;;;74.95;70.85;;;23.00;99.90;;;;;;5016435;28;20049;-80
2023/08/26 10:27:25;;;;;;;68.03;63.90;;;23.00;99.90;;;;;;5033963;28;20030;-80
2023/08/26 10:29:53;;;;;;;77.18;73.18;;;23.10;99.90;;;;;;5032532;28;20029;-80
2023/08/26 10:32:20;;;;;;;85.78;81.40;;;23.30;99.90;;;;;;5031466;28;20390;-80
2023/08/26 10:34:56;;;;;;;94.00;89.05;;;23.50;99.90;;;;;;5033984;28;20362;-80
2023/08/26 10:37:26;;;;;;;216.52;206.18;;;23.70;99.90;;;;;;5032731;28;20025;-80
2023/08/26 10:39:52;;;;;;;225.50;214.60;;;23.80;99.90;;;;;;5034052;28;20522;-80
2023/08/26 10:42:19;;;;;;;179.65;171.02;;;23.60;99.90;;;;;;5033836;28;20285;-80
2023/08/26 10:44:53;;;;;;;240.48;229.15;;;23.70;99.90;;;;;;5033983;28;20490;-80
2023/08/26 10:47:39;;;;;;;334.15;317.55;;;23.90;99.90;;;;;;5032722;28;20040;-80
2023/08/26 10:50:19;;;;;;;361.27;342.98;;;24.20;99.90;;;;;;5033116;28;20022;-80
2023/08/26 10:52:59;;;;;;;311.02;295.75;;;24.40;99.90;;;;;;5033115;28;20075;-80
2023/08/26 10:55:30;;;;;;;194.07;184.48;;;24.60;99.90;;;;;;5032272;28;20026;-80
2023/08/26 10:58:01;;;;;;;294.33;280.15;;;24.80;99.90;;;;;;5033220;28;20053;-80
2023/08/26 11:00:27;;;;;;;255.30;243.02;;;24.80;99.90;;;;;;5033104;28;20026;-80
2023/08/26 11:02:54;;;;;;;233.70;222.50;;;24.90;99.90;;;;;;5032771;28;20029;-78
2023/08/26 11:05:26;;;;;;;290.00;275.90;;;24.90;99.90;;;;;;5033017;28;20037;-80
2023/08/26 11:07:52;;;;;;;253.80;240.32;;;24.80;99.90;;;;;;5033075;28;20462;-80
2023/08/26 11:10:29;;;;;;;270.67;256.02;;;24.60;99.90;;;;;;5031942;28;20029;-79
2023/08/26 11:12:55;;;;;;;165.15;156.10;;;24.50;99.90;;;;;;5032936;28;20036;-78
2023/08/26 11:15:21;;;;;;;101.15;95.80;;;24.20;99.90;;;;;;5032627;28;20022;-79
2023/08/26 11:17:50;;;;;;;94.30;89.40;;;24.00;99.90;;;;;;5032490;28;20030;-79
2023/08/26 11:20:16;;;;;;;108.32;102.72;;;23.90;99.90;;;;;;5031507;28;20048;-78
2023/08/26 11:22:43;;;;;;;86.68;82.22;;;23.60;99.90;;;;;;5033024;28;20034;-78
2023/08/26 11:25:16;;;;;;;78.57;74.40;;;23.60;99.90;;;;;;5032607;28;20046;-79
2023/08/26 11:27:42;;;;;;;101.75;96.30;;;23.60;99.90;;;;;;5033194;28;20041;-79
2023/08/26 11:30:09;;;;;;;105.50;99.95;;;23.60;99.90;;;;;;5032291;28;20033;-78
2023/08/26 11:32:36;;;;;;;101.25;96.05;;;23.60;99.90;;;;;;5032125;28;20041;-79
2023/08/26 11:35:03;;;;;;;134.88;127.97;;;23.60;99.90;;;;;;5032699;28;20021;-79
2023/08/26 11:37:43;;;;;;;238.85;226.90;;;23.70;99.90;;;;;;5031518;28;20056;-79
2023/08/26 11:40:10;;;;;;;50.33;47.58;;;23.80;99.90;;;;;;5032529;28;20136;-80
2023/08/26 11:42:36;;;;;;;60.45;57.13;;;23.80;99.90;;;;;;5032570;28;20026;-80
2023/08/26 11:45:12;;;;;;;62.75;59.42;;;23.90;99.90;;;;;;5030582;28;20053;-71
2023/08/26 11:47:41;;;;;;;56.15;53.00;;;24.00;99.90;;;;;;5032957;28;20509;-79
2023/08/26 11:50:08;;;;;;;85.20;80.63;;;24.20;99.90;;;;;;5031191;28;20037;-80
2023/08/26 11:52:35;;;;;;;44.25;41.75;;;24.10;99.90;;;;;;5032113;28;20041;-79
2023/08/26 11:55:06;;;;;;;55.88;53.08;;;24.20;99.90;;;;;;5032323;28;20025;-80
2023/08/26 11:57:37;;;;;;;66.40;62.90;;;24.20;99.90;;;;;;5031241;28;20038;-79
2023/08/26 12:00:16;;;;;;;49.40;46.70;;;24.10;99.90;;;;;;5030533;28;20034;-79
2023/08/26 12:02:49;;;;;;;50.30;47.42;;;24.20;99.90;;;;;;5034659;28;20053;-80
2023/08/26 12:05:15;;;;;;;80.78;76.72;;;24.40;99.90;;;;;;5036416;28;20049;-81
2023/08/26 12:07:46;;;;;;;78.95;75.05;;;24.40;99.90;;;;;;5036564;28;20376;-80
2023/08/26 12:10:13;;;;;;;54.42;51.58;;;24.40;99.90;;;;;;5036596;28;20482;-80
2023/08/26 12:12:39;;;;;;;74.07;70.53;;;24.30;99.90;;;;;;5036931;28;20037;-80
2023/08/26 12:15:09;;;;;;;52.05;49.00;;;24.20;99.90;;;;;;5035307;28;20033;-78
2023/08/26 12:17:46;;;;;;;62.70;59.45;;;24.00;99.90;;;;;;5035225;28;20374;-78
2023/08/26 12:20:20;;;;;;;62.65;59.42;;;23.50;99.90;;;;;;5035206;28;20042;-79